createdAt,value
2022-11-10T00:00:11.060Z,23.32
2022-11-10T00:01:11.072Z,19.00
2022-11-10T00:02:11.064Z,16.96
2022-11-10T00:03:11.058Z,15.32
2022-11-10T00:04:11.137Z,16.94
2022-11-10T00:05:11.064Z,13.12
2022-11-10T00:06:11.066Z,17.18
2022-11-10T00:07:11.107Z,20.84
2022-11-10T00:08:11.065Z,10.96
2022-11-10T00:09:11.064Z,12.20
2022-11-10T00:10:11.082Z,18.86
2022-11-10T00:11:11.066Z,25.88
2022-11-10T00:12:11.062Z,15.72
2022-11-10T00:13:11.063Z,9.56
2022-11-10T00:14:15.065Z,16.06
2022-11-10T00:15:15.062Z,11.58
2022-11-10T00:16:15.064Z,13.94
2022-11-10T00:17:11.067Z,18.30
2022-11-10T00:18:11.065Z,19.12
2022-11-10T00:19:11.067Z,12.30
2022-11-10T00:20:11.065Z,14.52
2022-11-10T00:21:11.061Z,23.94
2022-11-10T00:22:11.059Z,16.22
2022-11-10T00:23:11.059Z,24.38
2022-11-10T00:24:11.059Z,20.38
2022-11-10T00:25:11.060Z,13.28
2022-11-10T00:26:14.057Z,16.74
2022-11-10T00:27:11.061Z,16.34
2022-11-10T00:28:11.057Z,18.06
2022-11-10T00:29:11.060Z,13.60
2022-11-10T00:30:11.060Z,17.48
2022-11-10T00:31:11.064Z,11.22
2022-11-10T00:32:11.063Z,10.46
2022-11-10T00:33:11.067Z,18.60
2022-11-10T00:34:16.062Z,27.62
2022-11-10T00:35:11.063Z,10.52
2022-11-10T00:36:11.060Z,10.48
2022-11-10T00:37:11.060Z,12.84
2022-11-10T00:38:11.060Z,13.18
2022-11-10T00:39:11.063Z,11.90
2022-11-10T00:40:11.064Z,10.92
2022-11-10T00:41:11.058Z,8.32
2022-11-10T00:42:11.067Z,19.68
2022-11-10T00:43:11.067Z,15.30
2022-11-10T00:44:11.059Z,13.86
2022-11-10T00:45:11.062Z,16.66
2022-11-10T00:46:11.070Z,14.42
2022-11-10T00:47:11.063Z,9.70
2022-11-10T00:48:11.067Z,12.88
2022-11-10T00:49:11.068Z,12.30
2022-11-10T00:50:11.060Z,14.10
2022-11-10T00:51:17.063Z,21.06
2022-11-10T00:52:11.071Z,13.22
2022-11-10T00:53:11.061Z,6.74
2022-11-10T00:54:11.062Z,12.50
2022-11-10T00:55:11.067Z,12.38
2022-11-10T00:56:11.061Z,11.82
2022-11-10T00:57:11.065Z,7.06
2022-11-10T00:58:11.072Z,16.66
2022-11-10T00:59:11.062Z,13.86
2022-11-10T01:00:11.064Z,13.22
2022-11-10T01:01:11.150Z,6.00
2022-11-10T01:02:11.069Z,10.90
2022-11-10T01:03:15.062Z,15.78
2022-11-10T01:04:11.070Z,11.00
2022-11-10T01:05:11.071Z,12.12
2022-11-10T01:06:11.064Z,9.86
2022-11-10T01:07:11.102Z,10.24
2022-11-10T01:08:11.067Z,12.82
2022-11-10T01:09:11.065Z,14.52
2022-11-10T01:10:11.071Z,11.92
2022-11-10T01:11:12.065Z,15.04
2022-11-10T01:12:11.064Z,17.16
2022-11-10T01:13:11.071Z,11.06
2022-11-10T01:14:11.064Z,12.78
2022-11-10T01:15:11.060Z,11.08
2022-11-10T01:16:11.066Z,11.76
2022-11-10T01:17:11.065Z,11.80
2022-11-10T01:18:11.064Z,11.72
2022-11-10T01:19:11.064Z,15.00
2022-11-10T01:20:12.064Z,10.70
2022-11-10T01:21:11.058Z,9.26
2022-11-10T01:22:11.060Z,12.28
2022-11-10T01:23:11.060Z,18.50
2022-11-10T01:24:11.059Z,10.02
2022-11-10T01:25:11.059Z,8.18
2022-11-10T01:26:11.062Z,16.52
2022-11-10T01:27:11.060Z,15.20
2022-11-10T01:28:11.059Z,8.68
2022-11-10T01:29:11.062Z,9.74
2022-11-10T01:30:11.059Z,15.00
2022-11-10T01:31:11.059Z,10.26
2022-11-10T01:32:11.062Z,15.92
2022-11-10T01:33:11.059Z,17.84
2022-11-10T01:34:11.063Z,9.10
2022-11-10T01:35:11.065Z,19.00
2022-11-10T01:36:11.060Z,11.50
2022-11-10T01:37:11.062Z,11.96
2022-11-10T01:38:11.068Z,10.14
2022-11-10T01:39:11.059Z,17.48
2022-11-10T01:40:11.126Z,16.84
2022-11-10T01:41:11.070Z,9.36
2022-11-10T01:42:11.064Z,14.98
2022-11-10T01:43:11.058Z,13.14
2022-11-10T01:44:19.077Z,12.22
2022-11-10T01:45:19.065Z,21.04
2022-11-10T01:46:11.061Z,10.42
2022-11-10T01:47:11.065Z,10.16
2022-11-10T01:48:14.073Z,14.08
2022-11-10T01:49:11.063Z,15.06
2022-11-10T01:50:11.062Z,10.08
2022-11-10T01:51:19.065Z,16.32
2022-11-10T01:52:13.070Z,12.54
2022-11-10T01:53:16.061Z,9.28
2022-11-10T01:54:13.058Z,17.50
2022-11-10T01:55:11.063Z,14.08
2022-11-10T01:56:11.066Z,13.16
2022-11-10T01:57:12.062Z,10.00
2022-11-10T01:58:12.063Z,11.78
2022-11-10T01:59:14.064Z,9.56
2022-11-10T02:00:11.062Z,13.34
2022-11-10T02:01:11.152Z,8.98
2022-11-10T02:02:19.065Z,16.38
2022-11-10T02:03:20.553Z,15.74
2022-11-10T02:04:14.062Z,9.00
2022-11-10T02:05:11.064Z,15.86
2022-11-10T02:06:11.072Z,20.30
2022-11-10T02:07:11.136Z,11.16
2022-11-10T02:08:12.064Z,15.30
2022-11-10T02:09:11.072Z,19.96
2022-11-10T02:10:15.069Z,16.94
2022-11-10T02:11:11.067Z,13.16
2022-11-10T02:12:11.063Z,9.60
2022-11-10T02:13:11.067Z,18.58
2022-11-10T02:14:11.065Z,18.36
2022-11-10T02:15:12.065Z,13.20
2022-11-10T02:16:11.066Z,11.36
2022-11-10T02:17:11.063Z,12.04
2022-11-10T02:18:11.065Z,16.26
2022-11-10T02:19:21.067Z,25.98
2022-11-10T02:20:12.066Z,10.22
2022-11-10T02:21:11.057Z,18.28
2022-11-10T02:22:11.057Z,7.36
2022-11-10T02:23:21.290Z,11.88
2022-11-10T02:24:11.065Z,15.58
2022-11-10T02:25:11.057Z,15.62
2022-11-10T02:26:11.058Z,12.90
2022-11-10T02:27:11.060Z,10.60
2022-11-10T02:28:11.059Z,14.44
2022-11-10T02:29:11.059Z,19.26
2022-11-10T02:30:11.064Z,20.36
2022-11-10T02:31:11.060Z,12.22
2022-11-10T02:32:11.055Z,19.32
2022-11-10T02:33:11.062Z,22.22
2022-11-10T02:34:11.058Z,11.56
2022-11-10T02:35:11.058Z,10.68
2022-11-10T02:36:11.057Z,12.48
2022-11-10T02:37:11.063Z,15.94
2022-11-10T02:38:11.059Z,14.12
2022-11-10T02:39:11.059Z,17.34
2022-11-10T02:40:11.066Z,16.94
2022-11-10T02:41:11.063Z,10.48
2022-11-10T02:42:14.059Z,10.50
2022-11-10T02:43:13.066Z,17.28
2022-11-10T02:44:11.060Z,15.78
2022-11-10T02:45:11.055Z,17.52
2022-11-10T02:46:11.058Z,10.50
2022-11-10T02:47:11.061Z,11.06
2022-11-10T02:48:11.062Z,17.24
2022-11-10T02:49:11.061Z,10.76
2022-11-10T02:50:11.068Z,15.36
2022-11-10T02:51:11.060Z,19.54
2022-11-10T02:52:11.061Z,17.42
2022-11-10T02:53:11.066Z,12.34
2022-11-10T02:54:11.061Z,6.76
2022-11-10T02:55:11.057Z,14.66
2022-11-10T02:56:11.061Z,11.58
2022-11-10T02:57:11.061Z,15.80
2022-11-10T02:58:11.060Z,12.92
2022-11-10T02:59:11.059Z,14.44
2022-11-10T03:00:11.062Z,10.92
2022-11-10T03:01:11.107Z,17.82
2022-11-10T03:02:11.062Z,13.56
2022-11-10T03:03:11.069Z,13.34
2022-11-10T03:04:11.070Z,18.70
2022-11-10T03:05:11.063Z,14.66
2022-11-10T03:06:11.068Z,18.92
2022-11-10T03:07:11.118Z,16.16
2022-11-10T03:08:11.063Z,15.02
2022-11-10T03:09:11.071Z,13.76
2022-11-10T03:10:11.063Z,13.16
2022-11-10T03:11:11.067Z,11.92
2022-11-10T03:12:11.065Z,18.06
2022-11-10T03:13:11.063Z,13.80
2022-11-10T03:14:11.060Z,10.70
2022-11-10T03:15:11.066Z,15.24
2022-11-10T03:16:11.071Z,9.34
2022-11-10T03:17:11.062Z,15.44
2022-11-10T03:18:11.061Z,10.82
2022-11-10T03:19:11.063Z,15.96
2022-11-10T03:20:11.062Z,17.22
2022-11-10T03:21:11.056Z,7.38
2022-11-10T03:22:11.062Z,12.56
2022-11-10T03:23:11.061Z,10.60
2022-11-10T03:24:11.056Z,9.88
2022-11-10T03:25:11.064Z,13.26
2022-11-10T03:26:11.061Z,13.28
2022-11-10T03:27:11.058Z,10.78
2022-11-10T03:28:11.062Z,13.02
2022-11-10T03:29:11.063Z,17.68
2022-11-10T03:30:11.058Z,6.36
2022-11-10T03:31:11.061Z,6.66
2022-11-10T03:32:11.072Z,13.70
2022-11-10T03:33:11.062Z,12.84
2022-11-10T03:34:11.056Z,14.94
2022-11-10T03:35:11.062Z,10.52
2022-11-10T03:36:11.063Z,12.66
2022-11-10T03:37:11.060Z,13.56
2022-11-10T03:38:11.068Z,12.82
2022-11-10T03:39:11.071Z,13.06
2022-11-10T03:40:11.063Z,14.70
2022-11-10T03:41:20.248Z,28.26
2022-11-10T03:42:13.915Z,15.14
2022-11-10T03:43:11.063Z,9.10
2022-11-10T03:44:11.061Z,10.56
2022-11-10T03:45:11.062Z,5.46
2022-11-10T03:46:11.068Z,5.22
2022-11-10T03:47:11.061Z,16.14
2022-11-10T03:48:11.063Z,17.74
2022-11-10T03:49:11.065Z,17.50
2022-11-10T03:50:11.065Z,5.88
2022-11-10T03:51:11.064Z,11.78
2022-11-10T03:52:11.070Z,11.66
2022-11-10T03:53:11.066Z,13.20
2022-11-10T03:54:11.060Z,10.10
2022-11-10T03:55:14.072Z,18.16
2022-11-10T03:56:11.065Z,7.02
2022-11-10T03:57:11.062Z,10.52
2022-11-10T03:58:11.063Z,17.24
2022-11-10T03:59:11.067Z,3.48
2022-11-10T04:00:11.061Z,15.76
2022-11-10T04:01:11.065Z,17.48
2022-11-10T04:02:11.105Z,14.94
2022-11-10T04:03:11.061Z,6.70
2022-11-10T04:04:15.065Z,13.66
2022-11-10T04:05:15.078Z,8.64
2022-11-10T04:06:15.065Z,13.02
2022-11-10T04:07:15.091Z,9.58
2022-11-10T04:08:15.066Z,13.02
2022-11-10T04:09:11.063Z,16.40
2022-11-10T04:10:11.067Z,8.88
2022-11-10T04:11:11.064Z,15.02
2022-11-10T04:12:15.064Z,11.76
2022-11-10T04:13:15.073Z,8.96
2022-11-10T04:14:15.066Z,13.70
2022-11-10T04:15:16.067Z,16.78
2022-11-10T04:16:11.066Z,15.56
2022-11-10T04:17:11.073Z,11.28
2022-11-10T04:18:15.065Z,8.88
2022-11-10T04:19:11.066Z,8.24
2022-11-10T04:20:11.065Z,12.76
2022-11-10T04:21:11.061Z,10.72
2022-11-10T04:22:11.059Z,9.76
2022-11-10T04:23:15.060Z,13.96
2022-11-10T04:24:11.060Z,9.54
2022-11-10T04:25:11.057Z,7.40
2022-11-10T04:26:15.063Z,11.18
2022-11-10T04:27:11.063Z,9.48
2022-11-10T04:28:11.061Z,14.84
2022-11-10T04:29:11.075Z,11.66
2022-11-10T04:30:11.060Z,10.20
2022-11-10T04:31:11.060Z,9.58
2022-11-10T04:32:11.060Z,16.76
2022-11-10T04:33:11.059Z,13.52
2022-11-10T04:34:11.063Z,11.56
2022-11-10T04:35:11.058Z,15.84
2022-11-10T04:36:11.062Z,12.08
2022-11-10T04:37:11.068Z,12.34
2022-11-10T04:38:11.062Z,12.16
2022-11-10T04:39:11.066Z,8.84
2022-11-10T04:40:11.068Z,12.36
2022-11-10T04:41:11.063Z,9.54
2022-11-10T04:42:11.058Z,8.74
2022-11-10T04:43:11.071Z,7.60
2022-11-10T04:44:11.064Z,11.10
2022-11-10T04:45:11.058Z,9.34
2022-11-10T04:46:18.070Z,7.46
2022-11-10T04:47:12.143Z,18.38
2022-11-10T04:48:11.062Z,10.50
2022-11-10T04:49:11.063Z,7.12
2022-11-10T04:50:11.066Z,6.32
2022-11-10T04:51:11.083Z,6.08
2022-11-10T04:52:11.063Z,7.78
2022-11-10T04:53:11.069Z,6.54
2022-11-10T04:54:11.064Z,9.14
2022-11-10T04:55:11.064Z,10.70
2022-11-10T04:56:14.070Z,19.54
2022-11-10T04:57:11.118Z,3.86
2022-11-10T04:58:11.059Z,10.56
2022-11-10T04:59:11.064Z,10.62
2022-11-10T05:00:11.065Z,10.68
2022-11-10T05:01:12.114Z,10.70
2022-11-10T05:02:11.063Z,16.40
2022-11-10T05:03:11.064Z,5.60
2022-11-10T05:04:11.064Z,11.38
2022-11-10T05:05:11.067Z,11.52
2022-11-10T05:06:11.064Z,6.90
2022-11-10T05:07:11.130Z,10.80
2022-11-10T05:08:11.086Z,14.50
2022-11-10T05:09:11.064Z,13.38
2022-11-10T05:10:11.064Z,10.26
2022-11-10T05:11:11.067Z,9.46
2022-11-10T05:12:11.067Z,7.32
2022-11-10T05:13:11.063Z,9.92
2022-11-10T05:14:11.064Z,8.24
2022-11-10T05:15:11.070Z,12.22
2022-11-10T05:16:11.063Z,4.86
2022-11-10T05:17:11.069Z,16.54
2022-11-10T05:18:11.066Z,11.22
2022-11-10T05:19:11.065Z,6.88
2022-11-10T05:20:11.066Z,14.20
2022-11-10T05:21:11.066Z,6.76
2022-11-10T05:22:11.059Z,9.12
2022-11-10T05:23:15.060Z,14.20
2022-11-10T05:24:11.062Z,8.46
2022-11-10T05:25:11.062Z,12.84
2022-11-10T05:26:16.057Z,11.86
2022-11-10T05:27:11.063Z,7.12
2022-11-10T05:28:11.069Z,12.42
2022-11-10T05:29:11.060Z,13.76
2022-11-10T05:30:11.063Z,9.18
2022-11-10T05:31:11.070Z,15.00
2022-11-10T05:32:11.060Z,12.54
2022-11-10T05:33:11.065Z,16.50
2022-11-10T05:34:11.066Z,5.60
2022-11-10T05:35:11.062Z,7.82
2022-11-10T05:36:11.059Z,10.10
2022-11-10T05:37:11.067Z,10.50
2022-11-10T05:38:11.065Z,15.56
2022-11-10T05:39:11.063Z,9.56
2022-11-10T05:40:11.060Z,14.94
2022-11-10T05:41:11.062Z,12.88
2022-11-10T05:42:11.067Z,13.14
2022-11-10T05:43:11.064Z,7.92
2022-11-10T05:44:11.070Z,11.26
2022-11-10T05:45:11.063Z,10.64
2022-11-10T05:46:11.064Z,6.56
2022-11-10T05:47:11.064Z,17.00
2022-11-10T05:48:11.061Z,6.78
2022-11-10T05:49:11.068Z,12.60
2022-11-10T05:50:11.063Z,12.98
2022-11-10T05:51:11.072Z,11.84
2022-11-10T05:52:11.062Z,10.30
2022-11-10T05:53:11.066Z,10.60
2022-11-10T05:54:11.070Z,9.18
2022-11-10T05:55:11.065Z,12.04
2022-11-10T05:56:11.065Z,5.42
2022-11-10T05:57:11.070Z,10.40
2022-11-10T05:58:11.067Z,7.20
2022-11-10T05:59:11.060Z,9.28
2022-11-10T06:00:11.063Z,8.52
2022-11-10T06:01:11.070Z,9.74
2022-11-10T06:02:11.064Z,7.68
2022-11-10T06:03:15.210Z,11.68
2022-11-10T06:04:11.067Z,13.14
2022-11-10T06:05:11.064Z,7.18
2022-11-10T06:06:11.064Z,6.84
2022-11-10T06:07:11.126Z,7.82
2022-11-10T06:08:11.067Z,11.32
2022-11-10T06:09:11.065Z,7.18
2022-11-10T06:10:11.066Z,19.62
2022-11-10T06:11:11.062Z,7.66
2022-11-10T06:12:11.068Z,12.78
2022-11-10T06:13:11.073Z,14.92
2022-11-10T06:14:11.067Z,13.46
2022-11-10T06:15:11.062Z,6.80
2022-11-10T06:16:11.067Z,8.48
2022-11-10T06:17:11.066Z,7.30
2022-11-10T06:18:11.066Z,8.50
2022-11-10T06:19:11.067Z,12.08
2022-11-10T06:20:11.066Z,12.26
2022-11-10T06:21:11.057Z,10.18
2022-11-10T06:22:11.064Z,15.34
2022-11-10T06:23:13.061Z,17.40
2022-11-10T06:24:11.057Z,9.72
2022-11-10T06:25:11.061Z,10.72
2022-11-10T06:26:11.072Z,12.46
2022-11-10T06:27:11.057Z,11.46
2022-11-10T06:28:11.056Z,11.24
2022-11-10T06:29:11.061Z,14.94
2022-11-10T06:30:11.067Z,10.20
2022-11-10T06:31:11.056Z,8.54
2022-11-10T06:32:11.063Z,20.56
2022-11-10T06:33:11.062Z,12.84
2022-11-10T06:34:11.059Z,10.26
2022-11-10T06:35:11.059Z,15.20
2022-11-10T06:36:11.062Z,10.92
2022-11-10T06:37:11.058Z,10.42
2022-11-10T06:38:13.087Z,7.74
2022-11-10T06:39:11.068Z,10.20
2022-11-10T06:40:11.060Z,11.32
2022-11-10T06:41:11.063Z,9.30
2022-11-10T06:42:11.068Z,10.24
2022-11-10T06:43:11.063Z,5.76
2022-11-10T06:44:11.065Z,6.48
2022-11-10T06:45:11.068Z,18.94
2022-11-10T06:46:11.097Z,8.86
2022-11-10T06:47:11.062Z,7.78
2022-11-10T06:48:12.074Z,6.76
2022-11-10T06:49:11.063Z,11.84
2022-11-10T06:50:11.057Z,10.16
2022-11-10T06:51:11.070Z,13.10
2022-11-10T06:52:11.063Z,10.22
2022-11-10T06:53:11.059Z,11.34
2022-11-10T06:54:11.067Z,14.84
2022-11-10T06:55:11.064Z,12.44
2022-11-10T06:56:11.062Z,7.20
2022-11-10T06:57:11.062Z,11.92
2022-11-10T06:58:11.072Z,7.18
2022-11-10T06:59:11.063Z,12.68
2022-11-10T07:00:11.066Z,10.32
2022-11-10T07:01:11.091Z,13.14
2022-11-10T07:02:15.064Z,9.22
2022-11-10T07:03:12.061Z,6.20
2022-11-10T07:04:19.803Z,11.56
2022-11-10T07:05:13.195Z,8.40
2022-11-10T07:06:11.063Z,6.32
2022-11-10T07:07:11.171Z,14.74
2022-11-10T07:08:14.072Z,15.78
2022-11-10T07:09:11.066Z,5.62
2022-11-10T07:10:11.065Z,9.62
2022-11-10T07:11:11.069Z,8.46
2022-11-10T07:12:11.066Z,7.52
2022-11-10T07:13:11.070Z,8.24
2022-11-10T07:14:11.064Z,14.86
2022-11-10T07:15:11.068Z,5.88
2022-11-10T07:16:11.062Z,6.68
2022-11-10T07:17:11.066Z,7.66
2022-11-10T07:18:11.072Z,6.60
2022-11-10T07:19:11.064Z,7.14
2022-11-10T07:20:11.066Z,5.84
2022-11-10T07:21:11.061Z,7.14
2022-11-10T07:22:11.506Z,5.42
2022-11-10T07:23:11.062Z,12.58
2022-11-10T07:24:11.068Z,11.22
2022-11-10T07:25:11.060Z,9.62
2022-11-10T07:26:11.055Z,6.38
2022-11-10T07:27:11.061Z,13.36
2022-11-10T07:28:11.060Z,8.92
2022-11-10T07:29:11.055Z,9.94
2022-11-10T07:30:11.071Z,8.84
2022-11-10T07:31:11.065Z,9.20
2022-11-10T07:32:11.061Z,4.20
2022-11-10T07:33:14.062Z,19.58
2022-11-10T07:34:11.065Z,8.54
2022-11-10T07:35:11.058Z,6.80
2022-11-10T07:36:11.061Z,7.96
2022-11-10T07:37:11.064Z,5.10
2022-11-10T07:38:12.060Z,5.92
2022-11-10T07:39:11.062Z,7.80
2022-11-10T07:40:11.071Z,13.18
2022-11-10T07:41:11.060Z,12.64
2022-11-10T07:42:11.063Z,14.96
2022-11-10T07:43:11.069Z,7.44
2022-11-10T07:44:11.062Z,15.68
2022-11-10T07:45:11.058Z,7.42
2022-11-10T07:46:11.065Z,7.42
2022-11-10T07:47:11.065Z,4.70
2022-11-10T07:48:11.059Z,5.78
2022-11-10T07:49:11.066Z,7.06
2022-11-10T07:50:11.075Z,12.00
2022-11-10T07:51:11.062Z,4.58
2022-11-10T07:52:11.061Z,10.12
2022-11-10T07:53:15.064Z,10.46
2022-11-10T07:54:11.087Z,5.96
2022-11-10T07:55:11.073Z,10.66
2022-11-10T07:56:11.072Z,9.76
2022-11-10T07:57:11.074Z,10.58
2022-11-10T07:58:11.066Z,7.80
2022-11-10T07:59:11.071Z,8.04
2022-11-10T08:00:11.069Z,9.14
2022-11-10T08:01:11.061Z,5.06
2022-11-10T08:02:12.079Z,6.58
2022-11-10T08:03:15.064Z,3.86
2022-11-10T08:04:11.066Z,14.22
2022-11-10T08:05:11.064Z,8.08
2022-11-10T08:06:11.147Z,8.28
2022-11-10T08:07:11.166Z,8.50
2022-11-10T08:08:11.064Z,6.14
2022-11-10T08:09:11.073Z,9.30
2022-11-10T08:10:11.063Z,14.78
2022-11-10T08:11:11.066Z,10.04
2022-11-10T08:12:11.069Z,12.52
2022-11-10T08:13:11.066Z,10.76
2022-11-10T08:14:11.062Z,8.00
2022-11-10T08:15:11.070Z,7.48
2022-11-10T08:16:11.068Z,8.20
2022-11-10T08:17:11.068Z,5.40
2022-11-10T08:18:19.090Z,9.28
2022-11-10T08:19:11.074Z,12.30
2022-11-10T08:20:11.064Z,7.94
2022-11-10T08:21:11.061Z,12.30
2022-11-10T08:22:11.068Z,5.78
2022-11-10T08:23:11.060Z,9.32
2022-11-10T08:24:11.073Z,8.08
2022-11-10T08:25:11.068Z,9.22
2022-11-10T08:26:11.061Z,10.44
2022-11-10T08:27:11.056Z,17.26
2022-11-10T08:28:14.069Z,5.30
2022-11-10T08:29:11.064Z,6.60
2022-11-10T08:30:11.062Z,8.56
2022-11-10T08:31:11.063Z,8.94
2022-11-10T08:32:11.073Z,6.78
2022-11-10T08:33:11.060Z,9.56
2022-11-10T08:34:11.063Z,11.58
2022-11-10T08:35:11.061Z,6.94
2022-11-10T08:36:11.060Z,9.56
2022-11-10T08:37:11.063Z,9.56
2022-11-10T08:38:14.063Z,9.94
2022-11-10T08:39:11.060Z,11.94
2022-11-10T08:40:11.065Z,5.32
2022-11-10T08:41:11.069Z,8.92
2022-11-10T08:42:11.064Z,11.70
2022-11-10T08:43:13.064Z,6.84
2022-11-10T08:44:11.424Z,6.70
2022-11-10T08:45:11.067Z,8.78
2022-11-10T08:46:11.060Z,12.76
2022-11-10T08:47:11.069Z,10.26
2022-11-10T08:48:11.064Z,8.00
2022-11-10T08:49:11.061Z,6.12
2022-11-10T08:50:11.064Z,6.02
2022-11-10T08:51:11.064Z,4.32
2022-11-10T08:52:11.060Z,5.08
2022-11-10T08:53:12.074Z,6.88
2022-11-10T08:54:11.065Z,6.52
2022-11-10T08:55:11.059Z,14.52
2022-11-10T08:56:11.071Z,14.14
2022-11-10T08:57:11.066Z,5.32
2022-11-10T08:58:16.060Z,5.40
2022-11-10T08:59:11.064Z,6.40
2022-11-10T09:00:11.072Z,4.72
2022-11-10T09:01:11.073Z,5.16
2022-11-10T09:02:11.071Z,9.02
2022-11-10T09:03:16.074Z,11.78
2022-11-10T09:04:11.106Z,4.08
2022-11-10T09:05:11.063Z,8.88
2022-11-10T09:06:11.066Z,6.04
2022-11-10T09:07:11.144Z,5.28
2022-11-10T09:08:11.068Z,3.34
2022-11-10T09:09:11.065Z,7.18
2022-11-10T09:10:11.076Z,4.42
2022-11-10T09:11:11.066Z,3.14
2022-11-10T09:12:11.067Z,4.42
2022-11-10T09:13:11.074Z,8.56
2022-11-10T09:14:11.069Z,7.88
2022-11-10T09:15:11.067Z,6.42
2022-11-10T09:16:11.074Z,9.04
2022-11-10T09:17:11.068Z,8.88
2022-11-10T09:18:11.070Z,2.20
2022-11-10T09:19:15.469Z,5.94
2022-11-10T09:20:13.546Z,4.78
2022-11-10T09:21:15.059Z,5.74
2022-11-10T09:22:11.085Z,12.22
2022-11-10T09:23:11.068Z,4.74
2022-11-10T09:24:11.059Z,7.94
2022-11-10T09:25:11.062Z,3.92
2022-11-10T09:26:11.069Z,11.26
2022-11-10T09:27:11.058Z,16.26
2022-11-10T09:28:15.057Z,13.00
2022-11-10T09:29:11.059Z,8.40
2022-11-10T09:30:16.270Z,13.00
2022-11-10T09:31:13.082Z,8.86
2022-11-10T09:32:11.063Z,4.36
2022-11-10T09:33:11.068Z,3.64
2022-11-10T09:34:11.072Z,6.04
2022-11-10T09:35:11.058Z,3.22
2022-11-10T09:36:11.069Z,7.54
2022-11-10T09:37:11.062Z,7.48
2022-11-10T09:38:11.060Z,4.54
2022-11-10T09:39:11.064Z,5.04
2022-11-10T09:40:22.065Z,3.62
2022-11-10T09:41:12.064Z,4.68
2022-11-10T09:42:19.067Z,5.16
2022-11-10T09:43:17.065Z,8.24
2022-11-10T09:44:19.066Z,8.32
2022-11-10T09:45:25.062Z,5.16
2022-11-10T09:46:17.061Z,5.14
2022-11-10T09:47:23.762Z,3.22
2022-11-10T09:48:21.580Z,9.74
2022-11-10T09:49:22.068Z,5.86
2022-11-10T09:50:15.063Z,4.42
2022-11-10T09:51:20.060Z,10.10
2022-11-10T09:52:12.069Z,4.34
2022-11-10T09:53:16.072Z,3.30
2022-11-10T09:54:19.060Z,12.28
2022-11-10T09:55:22.059Z,1.36
2022-11-10T09:56:16.065Z,2.78
2022-11-10T09:57:20.087Z,4.22
2022-11-10T09:58:14.065Z,4.06
2022-11-10T09:59:22.062Z,4.82
2022-11-10T10:00:16.065Z,3.56
2022-11-10T10:01:19.212Z,6.50
2022-11-10T10:02:19.072Z,5.06
2022-11-10T10:03:16.077Z,2.66
2022-11-10T10:04:19.063Z,8.52
2022-11-10T10:05:19.066Z,6.28
2022-11-10T10:06:14.064Z,4.52
2022-11-10T10:07:17.091Z,3.60
2022-11-10T10:08:19.282Z,1.36
2022-11-10T10:09:19.068Z,4.12
2022-11-10T10:10:19.068Z,5.86
2022-11-10T10:11:19.066Z,6.86
2022-11-10T10:12:19.068Z,1.60
2022-11-10T10:13:22.064Z,3.50
2022-11-10T10:14:19.067Z,3.38
2022-11-10T10:15:25.403Z,2.30
2022-11-10T10:16:19.075Z,1.52
2022-11-10T10:17:19.072Z,2.38
2022-11-10T10:18:25.424Z,5.34
2022-11-10T10:19:19.067Z,5.16
2022-11-10T10:20:19.101Z,3.10
2022-11-10T10:21:19.060Z,4.82
2022-11-10T10:22:19.069Z,3.16
2022-11-10T10:23:18.060Z,5.18
2022-11-10T10:24:21.199Z,6.26
2022-11-10T10:25:19.859Z,3.08
2022-11-10T10:26:15.062Z,3.80
2022-11-10T10:27:17.080Z,8.36
2022-11-10T10:28:19.403Z,2.92
2022-11-10T10:29:11.057Z,5.24
2022-11-10T10:30:20.298Z,1.80
2022-11-10T10:31:19.061Z,2.88
2022-11-10T10:32:15.060Z,2.04
2022-11-10T10:33:18.063Z,2.38
2022-11-10T10:34:19.068Z,3.94
2022-11-10T10:35:17.063Z,4.16
2022-11-10T10:36:15.059Z,4.00
2022-11-10T10:37:19.064Z,2.54
2022-11-10T10:38:22.453Z,2.32
2022-11-10T10:39:17.071Z,5.52
2022-11-10T10:40:15.063Z,6.02
2022-11-10T10:41:23.637Z,1.88
2022-11-10T10:42:19.059Z,2.30
2022-11-10T10:43:11.062Z,4.56
2022-11-10T10:44:14.071Z,3.72
2022-11-10T10:45:15.119Z,3.22
2022-11-10T10:46:11.066Z,3.48
2022-11-10T10:47:11.070Z,4.84
2022-11-10T10:48:19.266Z,3.62
2022-11-10T10:49:30.006Z,3.30
2022-11-10T10:50:21.069Z,3.94
2022-11-10T10:51:11.070Z,3.44
2022-11-10T10:52:16.072Z,8.32
2022-11-10T10:53:16.083Z,2.64
2022-11-10T10:54:19.065Z,5.04
2022-11-10T10:55:12.071Z,1.92
2022-11-10T10:56:18.061Z,2.04
2022-11-10T10:57:22.064Z,8.34
2022-11-10T10:58:19.407Z,9.04
2022-11-10T10:59:20.076Z,5.50
2022-11-10T11:00:21.070Z,3.70
2022-11-10T11:01:19.145Z,7.34
2022-11-10T11:02:19.061Z,7.82
2022-11-10T11:03:19.065Z,5.14
2022-11-10T11:04:22.079Z,2.98
2022-11-10T11:05:15.067Z,3.80
2022-11-10T11:06:18.068Z,3.26
2022-11-10T11:07:21.065Z,2.00
2022-11-10T11:08:17.069Z,5.42
2022-11-10T11:09:19.067Z,6.84
2022-11-10T11:10:17.161Z,11.38
2022-11-10T11:11:11.064Z,5.04
2022-11-10T11:12:12.066Z,2.66
2022-11-10T11:13:19.067Z,4.88
2022-11-10T11:14:19.065Z,8.26
2022-11-10T11:15:20.063Z,1.38
2022-11-10T11:16:11.072Z,3.96
2022-11-10T11:17:19.137Z,2.68
2022-11-10T11:18:15.078Z,2.56
2022-11-10T11:19:11.278Z,3.66
2022-11-10T11:20:15.070Z,2.26
2022-11-10T11:21:19.068Z,5.76
2022-11-10T11:22:19.066Z,3.76
2022-11-10T11:23:19.061Z,3.36
2022-11-10T11:24:23.059Z,6.90
2022-11-10T11:25:20.064Z,2.00
2022-11-10T11:26:19.061Z,3.60
2022-11-10T11:27:21.072Z,3.94
2022-11-10T11:28:19.212Z,6.66
2022-11-10T11:29:19.058Z,6.26
2022-11-10T11:30:18.056Z,7.22
2022-11-10T11:31:19.061Z,6.10
2022-11-10T11:32:19.070Z,10.68
2022-11-10T11:33:19.062Z,5.50
2022-11-10T11:34:21.064Z,5.50
2022-11-10T11:35:19.059Z,3.80
2022-11-10T11:36:19.064Z,2.94
2022-11-10T11:37:23.060Z,1.56
2022-11-10T11:38:16.069Z,1.90
2022-11-10T11:39:19.061Z,4.32
2022-11-10T11:40:21.084Z,3.20
2022-11-10T11:41:21.063Z,1.12
2022-11-10T11:42:19.068Z,5.14
2022-11-10T11:43:19.064Z,8.12
2022-11-10T11:44:21.071Z,4.70
2022-11-10T11:45:20.064Z,3.76
2022-11-10T11:46:19.060Z,2.30
2022-11-10T11:47:19.066Z,2.80
2022-11-10T11:48:22.334Z,7.24
2022-11-10T11:49:19.071Z,4.68
2022-11-10T11:50:19.065Z,7.00
2022-11-10T11:51:19.060Z,2.28
2022-11-10T11:52:19.060Z,5.06
2022-11-10T11:53:21.062Z,3.84
2022-11-10T11:54:19.072Z,8.80
2022-11-10T11:55:21.064Z,1.48
2022-11-10T11:56:21.063Z,3.36
2022-11-10T11:57:21.060Z,3.52
2022-11-10T11:58:19.203Z,3.20
2022-11-10T11:59:19.072Z,4.86
2022-11-10T12:00:13.069Z,2.24
2022-11-10T12:01:21.063Z,6.86
2022-11-10T12:02:19.099Z,4.82
2022-11-10T12:03:19.065Z,6.58
2022-11-10T12:04:19.066Z,3.82
2022-11-10T12:05:21.063Z,4.32
2022-11-10T12:06:21.065Z,1.52
2022-11-10T12:07:21.067Z,3.82
2022-11-10T12:08:21.350Z,3.40
2022-11-10T12:09:19.072Z,2.20
2022-11-10T12:10:19.151Z,4.06
2022-11-10T12:11:19.063Z,2.16
2022-11-10T12:12:19.068Z,5.46
2022-11-10T12:13:21.069Z,4.60
2022-11-10T12:14:19.082Z,1.74
2022-11-10T12:15:21.068Z,2.32
2022-11-10T12:16:19.064Z,4.76
2022-11-10T12:17:20.067Z,2.44
2022-11-10T12:18:21.397Z,3.84
2022-11-10T12:19:19.074Z,3.66
2022-11-10T12:20:19.171Z,6.16
2022-11-10T12:21:21.059Z,3.14
2022-11-10T12:22:21.064Z,3.90
2022-11-10T12:23:19.059Z,3.74
2022-11-10T12:24:19.073Z,1.58
2022-11-10T12:25:19.063Z,0.56
2022-11-10T12:26:21.061Z,2.78
2022-11-10T12:27:19.057Z,2.84
2022-11-10T12:28:19.235Z,5.14
2022-11-10T12:29:19.086Z,1.22
2022-11-10T12:30:14.060Z,4.12
2022-11-10T12:31:17.060Z,8.36
2022-11-10T12:32:19.059Z,0.48
2022-11-10T12:33:21.069Z,2.50
2022-11-10T12:34:19.062Z,2.60
2022-11-10T12:35:19.060Z,4.24
2022-11-10T12:36:14.060Z,1.36
2022-11-10T12:37:18.209Z,6.34
2022-11-10T12:38:17.064Z,3.88
2022-11-10T12:39:19.059Z,1.80
2022-11-10T12:40:15.063Z,2.18
2022-11-10T12:41:12.062Z,1.40
2022-11-10T12:42:19.062Z,2.82
2022-11-10T12:43:19.143Z,6.20
2022-11-10T12:44:19.061Z,4.76
2022-11-10T12:45:19.066Z,1.08
2022-11-10T12:46:12.075Z,1.84
2022-11-10T12:47:16.059Z,0.54
2022-11-10T12:48:12.062Z,1.88
2022-11-10T12:49:17.081Z,1.34
2022-11-10T12:50:19.183Z,4.54
2022-11-10T12:51:19.077Z,1.00
2022-11-10T12:52:21.064Z,1.20
2022-11-10T12:53:19.061Z,9.14
2022-11-10T12:54:16.442Z,1.62
2022-11-10T12:55:14.065Z,4.80
2022-11-10T12:56:19.059Z,2.94
2022-11-10T12:57:19.061Z,4.60
2022-11-10T12:58:14.069Z,0.82
2022-11-10T12:59:19.060Z,0.90
2022-11-10T13:00:22.430Z,0.94
2022-11-10T13:01:18.216Z,2.60
2022-11-10T13:02:21.073Z,0.70
2022-11-10T13:03:19.064Z,1.78
2022-11-10T13:04:13.064Z,3.38
2022-11-10T13:05:19.066Z,0.62
2022-11-10T13:06:19.071Z,1.94